»·PEaware :: EAW211 KLAS-KSNA

EAW211 :: KLAS-KSNA

FLIGHT INFORMATION

Flight Status: Arrived
Operator: Unknown
More flights by this operator :: More flights under this callsign
Pilot: Ben F. (2808)
Aircraft: BOEING 737-800
(B738)
More flights by this aircraft type
Origin: KLAS McCarran Intl
United States
Destination: KSNA John Wayne-Orange Co
United States
More flights between these airports :: More routes between these airports
Route: +BOACH8 WHIGG FEYLA DSNEE2
File this flight plan on PilotEdge
Remarks: PBN / A1B1C1D1S1S2 NAV / RNVD1E2A1 REG / N501EA RMK / SIMBRIEF
Altitude:
(Current/Filed)
28,000ft
Speed:
(Current/Filed)
475kts
Departed: 30-Dec-17 07:52 PM
Arrived: 30-Dec-17 08:32 PM
Distance/Time
Traveled:
197nm/0:40
Distance/Time
To Go:
Arrived

Flight Plot

Page will automatically refresh every two minutes.

Flight plan parsing failed; only flown route is shown


Map Options




Map Legend


Flown Route
Filed Route
Departure Airport
Arrival Airport
Navaid (VOR, NDB)
Fix

Horizontal Profiles

Position Reports

Time Latitude Longitude Heading Altitude Ground
Speed
30-Dec-17 19:43 36.084743 -115.154505 9 2189ft 0kts
30-Dec-17 19:44 36.084743 -115.154505 9 2189ft 0kts
30-Dec-17 19:45 36.084743 -115.154505 9 2189ft 0kts
30-Dec-17 19:46 36.084743 -115.154505 9 2189ft 0kts
30-Dec-17 19:47 36.084743 -115.154505 9 2189ft 0kts
30-Dec-17 19:48 36.084743 -115.154505 9 2189ft 0kts
30-Dec-17 19:49 36.084743 -115.154505 9 2189ft 0kts
30-Dec-17 19:50 36.084370 -115.154585 9 2189ft 2kts
30-Dec-17 19:51 36.083770 -115.154716 9 2189ft 0kts
30-Dec-17 19:52 36.083771 -115.154716 9 2189ft 0kts
30-Dec-17 19:53 36.085078 -115.156060 269 2189ft 5kts
30-Dec-17 19:54 36.087804 -115.157512 24 2189ft 18kts
30-Dec-17 19:55 36.093389 -115.154348 24 2189ft 23kts
30-Dec-17 19:56 36.097338 -115.152097 16 2189ft 6kts
30-Dec-17 19:57 36.097162 -115.154418 202 2189ft 30kts
30-Dec-17 19:58 36.063533 -115.173738 204 3516ft 173kts
30-Dec-17 19:59 36.018734 -115.200788 221 6265ft 192kts
30-Dec-17 20:00 35.984475 -115.270655 240 7029ft 276kts
30-Dec-17 20:01 35.915504 -115.308203 188 8893ft 285kts
30-Dec-17 20:02 35.833208 -115.312895 177 11627ft 324kts
30-Dec-17 20:03 35.734486 -115.301157 177 13559ft 373kts
30-Dec-17 20:04 35.642338 -115.344572 225 16232ft 373kts
30-Dec-17 20:05 35.570693 -115.439394 228 18705ft 385kts
30-Dec-17 20:06 35.497547 -115.537636 228 19527ft 392kts
30-Dec-17 20:07 35.423837 -115.637089 229 21907ft 399kts
30-Dec-17 20:08 35.347650 -115.739761 228 23130ft 416kts
30-Dec-17 20:09 35.270832 -115.842486 228 23142ft 406kts
30-Dec-17 20:10 35.193492 -115.943818 226 23557ft 412kts
30-Dec-17 20:11 35.112855 -116.044931 226 25367ft 420kts
30-Dec-17 20:12 35.030803 -116.148469 226 26870ft 430kts
30-Dec-17 20:13 34.947688 -116.252525 227 28146ft 430kts
30-Dec-17 20:14 34.865444 -116.355738 227 28151ft 416kts
30-Dec-17 20:15 34.786709 -116.456150 227 27242ft 400kts
30-Dec-17 20:16 34.710608 -116.552704 226 25408ft 384kts
30-Dec-17 20:17 34.630096 -116.637171 219 23510ft 384kts
30-Dec-17 20:18 34.547178 -116.717700 219 21333ft 379kts
30-Dec-17 20:19 34.468366 -116.799704 224 19355ft 365kts
30-Dec-17 20:20 34.396424 -116.884632 223 17419ft 359kts
30-Dec-17 20:21 34.324795 -116.967557 223 15572ft 351kts
30-Dec-17 20:22 34.252401 -117.044514 213 13947ft 340kts
30-Dec-17 20:23 34.172567 -117.101552 209 13051ft 333kts
30-Dec-17 20:24 34.087703 -117.147730 204 12519ft 333kts
30-Dec-17 20:25 34.005251 -117.193218 213 12029ft 310kts
30-Dec-17 20:26 33.947761 -117.264028 229 10899ft 283kts
30-Dec-17 20:27 33.897381 -117.335487 230 9771ft 277kts
30-Dec-17 20:28 33.850011 -117.402348 230 8705ft 253kts
30-Dec-17 20:29 33.810427 -117.470273 247 7828ft 243kts
30-Dec-17 20:30 33.797824 -117.548119 271 7593ft 236kts
30-Dec-17 20:31 33.809932 -117.623425 299 6850ft 236kts
30-Dec-17 20:32 33.846697 -117.690345 302 5119ft 236kts
30-Dec-17 20:33 33.838457 -117.759286 236 3610ft 225kts
30-Dec-17 20:34 33.788227 -117.797569 207 2379ft 200kts
30-Dec-17 20:35 33.743335 -117.825946 206 1402ft 165kts
30-Dec-17 20:36 33.704914 -117.850319 206 582ft 152kts
30-Dec-17 20:37 33.670534 -117.872155 207 64ft 46kts
30-Dec-17 20:38 33.668446 -117.871596 39 64ft 19kts
30-Dec-17 20:39 33.672325 -117.868028 27 64ft 12kts
30-Dec-17 20:40 33.675136 -117.865650 79 64ft 5kts
30-Dec-17 20:41 33.674994 -117.865109 117 64ft 0kts
30-Dec-17 20:42 33.674994 -117.865109 117 64ft 0kts
30-Dec-17 20:43 33.674994 -117.865109 117 64ft 0kts
30-Dec-17 20:44 33.674994 -117.865109 117 64ft 0kts
30-Dec-17 20:45 33.674994 -117.865109 117 64ft 0kts
30-Dec-17 20:46 33.674994 -117.865109 117 64ft 0kts
30-Dec-17 20:47 33.674994 -117.865109 117 64ft 0kts
30-Dec-17 20:48 33.674994 -117.865109 117 64ft 0kts
30-Dec-17 20:49 33.674994 -117.865109 117 64ft 0kts
30-Dec-17 20:50 33.674994 -117.865109 117 64ft 0kts

Navigation Log

Ident Type
Flight plan parsing failed, navigation log unavailable